sensor_id;sensor_type;location;lat;lon;timestamp;P1;durP1;ratioP1;P2;durP2;ratioP2
19739;SDS011;10027;51.066;13.768;2023-06-19T00:01:15;8.50;;;7.57;;
19739;SDS011;10027;51.066;13.768;2023-06-19T00:03:42;9.03;;;8.03;;
19739;SDS011;10027;51.066;13.768;2023-06-19T00:06:09;9.77;;;7.73;;
19739;SDS011;10027;51.066;13.768;2023-06-19T00:08:38;8.77;;;7.87;;
19739;SDS011;10027;51.066;13.768;2023-06-19T00:11:07;8.67;;;7.77;;
19739;SDS011;10027;51.066;13.768;2023-06-19T00:13:34;8.97;;;7.70;;
19739;SDS011;10027;51.066;13.768;2023-06-19T00:16:02;8.90;;;8.00;;
19739;SDS011;10027;51.066;13.768;2023-06-19T00:18:29;8.80;;;7.90;;
19739;SDS011;10027;51.066;13.768;2023-06-19T00:20:56;9.97;;;7.63;;
19739;SDS011;10027;51.066;13.768;2023-06-19T00:23:24;9.63;;;8.30;;
19739;SDS011;10027;51.066;13.768;2023-06-19T00:25:51;12.00;;;7.93;;
19739;SDS011;10027;51.066;13.768;2023-06-19T00:28:18;8.47;;;7.57;;
19739;SDS011;10027;51.066;13.768;2023-06-19T00:30:47;13.60;;;7.90;;
19739;SDS011;10027;51.066;13.768;2023-06-19T00:33:15;8.60;;;7.70;;
19739;SDS011;10027;51.066;13.768;2023-06-19T00:35:42;9.00;;;8.07;;
19739;SDS011;10027;51.066;13.768;2023-06-19T00:38:10;10.83;;;8.10;;
19739;SDS011;10027;51.066;13.768;2023-06-19T00:40:38;8.83;;;7.93;;
19739;SDS011;10027;51.066;13.768;2023-06-19T00:43:05;8.80;;;7.90;;
19739;SDS011;10027;51.066;13.768;2023-06-19T00:45:33;8.70;;;7.60;;
19739;SDS011;10027;51.066;13.768;2023-06-19T00:48:00;9.27;;;7.90;;
19739;SDS011;10027;51.066;13.768;2023-06-19T00:50:28;8.73;;;7.83;;
19739;SDS011;10027;51.066;13.768;2023-06-19T00:52:57;9.60;;;8.30;;
19739;SDS011;10027;51.066;13.768;2023-06-19T00:55:26;9.23;;;7.97;;
19739;SDS011;10027;51.066;13.768;2023-06-19T00:57:56;9.80;;;8.03;;
19739;SDS011;10027;51.066;13.768;2023-06-19T01:00:23;9.37;;;8.37;;
19739;SDS011;10027;51.066;13.768;2023-06-19T01:02:51;8.90;;;8.00;;
19739;SDS011;10027;51.066;13.768;2023-06-19T01:05:18;10.20;;;8.30;;
19739;SDS011;10027;51.066;13.768;2023-06-19T01:07:47;9.40;;;8.03;;
19739;SDS011;10027;51.066;13.768;2023-06-19T01:10:21;9.57;;;8.20;;
19739;SDS011;10027;51.066;13.768;2023-06-19T01:12:56;9.23;;;8.33;;
19739;SDS011;10027;51.066;13.768;2023-06-19T01:15:23;10.47;;;7.83;;
19739;SDS011;10027;51.066;13.768;2023-06-19T01:17:51;9.63;;;8.27;;
19739;SDS011;10027;51.066;13.768;2023-06-19T01:20:18;9.07;;;8.17;;
19739;SDS011;10027;51.066;13.768;2023-06-19T01:22:46;9.00;;;7.90;;
19739;SDS011;10027;51.066;13.768;2023-06-19T01:25:13;9.03;;;8.07;;
19739;SDS011;10027;51.066;13.768;2023-06-19T01:27:41;9.73;;;8.80;;
19739;SDS011;10027;51.066;13.768;2023-06-19T01:30:09;8.70;;;7.80;;
19739;SDS011;10027;51.066;13.768;2023-06-19T01:32:53;8.27;;;7.47;;
19739;SDS011;10027;51.066;13.768;2023-06-19T01:35:26;9.23;;;7.93;;
19739;SDS011;10027;51.066;13.768;2023-06-19T01:37:54;8.23;;;7.13;;
19739;SDS011;10027;51.066;13.768;2023-06-19T01:40:22;8.90;;;8.00;;
19739;SDS011;10027;51.066;13.768;2023-06-19T01:42:52;8.90;;;8.00;;
19739;SDS011;10027;51.066;13.768;2023-06-19T01:45:20;8.83;;;7.93;;
19739;SDS011;10027;51.066;13.768;2023-06-19T01:47:47;8.63;;;7.80;;
19739;SDS011;10027;51.066;13.768;2023-06-19T01:50:15;8.73;;;7.50;;
19739;SDS011;10027;51.066;13.768;2023-06-19T01:52:43;9.37;;;7.93;;
19739;SDS011;10027;51.066;13.768;2023-06-19T01:55:10;8.63;;;7.83;;
19739;SDS011;10027;51.066;13.768;2023-06-19T01:57:37;9.17;;;8.27;;
19739;SDS011;10027;51.066;13.768;2023-06-19T02:00:05;9.10;;;8.20;;
19739;SDS011;10027;51.066;13.768;2023-06-19T02:02:36;9.07;;;7.90;;
19739;SDS011;10027;51.066;13.768;2023-06-19T02:05:04;8.93;;;8.03;;
19739;SDS011;10027;51.066;13.768;2023-06-19T02:07:31;8.87;;;7.77;;
19739;SDS011;10027;51.066;13.768;2023-06-19T02:09:58;8.93;;;8.03;;
19739;SDS011;10027;51.066;13.768;2023-06-19T02:12:25;9.27;;;8.20;;
19739;SDS011;10027;51.066;13.768;2023-06-19T02:14:53;8.93;;;8.03;;
19739;SDS011;10027;51.066;13.768;2023-06-19T02:17:20;8.87;;;7.97;;
19739;SDS011;10027;51.066;13.768;2023-06-19T02:19:47;9.70;;;7.37;;
19739;SDS011;10027;51.066;13.768;2023-06-19T02:22:14;8.77;;;7.50;;
19739;SDS011;10027;51.066;13.768;2023-06-19T02:24:41;9.20;;;7.73;;
19739;SDS011;10027;51.066;13.768;2023-06-19T02:27:10;9.53;;;8.03;;
19739;SDS011;10027;51.066;13.768;2023-06-19T02:29:37;9.53;;;7.77;;
19739;SDS011;10027;51.066;13.768;2023-06-19T02:32:05;8.70;;;7.77;;
19739;SDS011;10027;51.066;13.768;2023-06-19T02:34:32;9.23;;;8.23;;
19739;SDS011;10027;51.066;13.768;2023-06-19T02:36:59;9.03;;;8.10;;
19739;SDS011;10027;51.066;13.768;2023-06-19T02:39:26;10.07;;;8.03;;
19739;SDS011;10027;51.066;13.768;2023-06-19T02:41:54;8.93;;;8.03;;
19739;SDS011;10027;51.066;13.768;2023-06-19T02:44:21;11.50;;;8.20;;
19739;SDS011;10027;51.066;13.768;2023-06-19T02:46:49;9.13;;;7.90;;
19739;SDS011;10027;51.066;13.768;2023-06-19T02:49:17;9.30;;;8.40;;
19739;SDS011;10027;51.066;13.768;2023-06-19T02:51:44;9.40;;;8.40;;
19739;SDS011;10027;51.066;13.768;2023-06-19T02:54:11;9.47;;;7.97;;
19739;SDS011;10027;51.066;13.768;2023-06-19T02:56:38;10.93;;;8.33;;
19739;SDS011;10027;51.066;13.768;2023-06-19T02:59:05;10.90;;;8.23;;
19739;SDS011;10027;51.066;13.768;2023-06-19T03:01:32;9.83;;;8.40;;
19739;SDS011;10027;51.066;13.768;2023-06-19T03:04:00;8.80;;;7.87;;
19739;SDS011;10027;51.066;13.768;2023-06-19T03:06:27;9.80;;;8.37;;
19739;SDS011;10027;51.066;13.768;2023-06-19T03:08:54;9.40;;;8.33;;
19739;SDS011;10027;51.066;13.768;2023-06-19T03:11:22;10.60;;;8.07;;
19739;SDS011;10027;51.066;13.768;2023-06-19T03:13:50;8.73;;;7.77;;
19739;SDS011;10027;51.066;13.768;2023-06-19T03:16:18;8.80;;;7.90;;
19739;SDS011;10027;51.066;13.768;2023-06-19T03:18:46;9.27;;;8.23;;
19739;SDS011;10027;51.066;13.768;2023-06-19T03:21:18;9.03;;;8.13;;
19739;SDS011;10027;51.066;13.768;2023-06-19T03:23:46;9.13;;;7.97;;
19739;SDS011;10027;51.066;13.768;2023-06-19T03:26:13;9.90;;;7.90;;
19739;SDS011;10027;51.066;13.768;2023-06-19T03:28:40;9.20;;;7.90;;
19739;SDS011;10027;51.066;13.768;2023-06-19T03:31:07;8.53;;;7.67;;
19739;SDS011;10027;51.066;13.768;2023-06-19T03:33:35;9.50;;;8.37;;
19739;SDS011;10027;51.066;13.768;2023-06-19T03:36:02;9.93;;;8.40;;
19739;SDS011;10027;51.066;13.768;2023-06-19T03:38:29;9.33;;;8.03;;
19739;SDS011;10027;51.066;13.768;2023-06-19T03:40:57;9.00;;;8.10;;
19739;SDS011;10027;51.066;13.768;2023-06-19T03:43:24;9.10;;;7.93;;
19739;SDS011;10027;51.066;13.768;2023-06-19T03:45:51;8.73;;;7.77;;
19739;SDS011;10027;51.066;13.768;2023-06-19T03:48:19;8.73;;;7.83;;
19739;SDS011;10027;51.066;13.768;2023-06-19T03:50:46;10.80;;;7.90;;
19739;SDS011;10027;51.066;13.768;2023-06-19T03:53:13;10.80;;;8.40;;
19739;SDS011;10027;51.066;13.768;2023-06-19T03:55:40;8.57;;;7.67;;
19739;SDS011;10027;51.066;13.768;2023-06-19T03:58:08;8.50;;;7.60;;
19739;SDS011;10027;51.066;13.768;2023-06-19T04:00:35;8.53;;;7.63;;
19739;SDS011;10027;51.066;13.768;2023-06-19T04:03:02;9.93;;;8.33;;
19739;SDS011;10027;51.066;13.768;2023-06-19T04:05:29;9.10;;;8.13;;
19739;SDS011;10027;51.066;13.768;2023-06-19T04:07:56;9.50;;;8.13;;
19739;SDS011;10027;51.066;13.768;2023-06-19T04:10:24;8.97;;;7.97;;
19739;SDS011;10027;51.066;13.768;2023-06-19T04:12:51;9.53;;;8.10;;
19739;SDS011;10027;51.066;13.768;2023-06-19T04:15:22;9.67;;;8.33;;
19739;SDS011;10027;51.066;13.768;2023-06-19T04:17:49;10.30;;;7.80;;
19739;SDS011;10027;51.066;13.768;2023-06-19T04:20:16;10.10;;;8.47;;
19739;SDS011;10027;51.066;13.768;2023-06-19T04:22:43;8.57;;;7.63;;
19739;SDS011;10027;51.066;13.768;2023-06-19T04:25:11;8.77;;;7.87;;
19739;SDS011;10027;51.066;13.768;2023-06-19T04:27:38;11.27;;;8.10;;
19739;SDS011;10027;51.066;13.768;2023-06-19T04:30:05;9.00;;;8.10;;
19739;SDS011;10027;51.066;13.768;2023-06-19T04:32:34;9.43;;;8.00;;
19739;SDS011;10027;51.066;13.768;2023-06-19T04:35:01;9.70;;;7.50;;
19739;SDS011;10027;51.066;13.768;2023-06-19T04:37:29;10.43;;;8.23;;
19739;SDS011;10027;51.066;13.768;2023-06-19T04:39:56;9.33;;;7.60;;
19739;SDS011;10027;51.066;13.768;2023-06-19T04:42:24;8.63;;;7.73;;
19739;SDS011;10027;51.066;13.768;2023-06-19T04:44:52;9.43;;;8.07;;
19739;SDS011;10027;51.066;13.768;2023-06-19T04:47:22;8.93;;;8.03;;
19739;SDS011;10027;51.066;13.768;2023-06-19T04:50:01;8.87;;;7.97;;
19739;SDS011;10027;51.066;13.768;2023-06-19T04:52:29;10.60;;;8.70;;
19739;SDS011;10027;51.066;13.768;2023-06-19T04:54:59;8.47;;;7.67;;
19739;SDS011;10027;51.066;13.768;2023-06-19T04:57:26;9.03;;;7.67;;
19739;SDS011;10027;51.066;13.768;2023-06-19T04:59:53;8.87;;;7.97;;
19739;SDS011;10027;51.066;13.768;2023-06-19T05:02:21;9.03;;;8.00;;
19739;SDS011;10027;51.066;13.768;2023-06-19T05:04:50;9.00;;;8.10;;
19739;SDS011;10027;51.066;13.768;2023-06-19T05:07:17;8.93;;;8.03;;
19739;SDS011;10027;51.066;13.768;2023-06-19T05:09:44;9.20;;;7.40;;
19739;SDS011;10027;51.066;13.768;2023-06-19T05:12:11;11.27;;;8.33;;
19739;SDS011;10027;51.066;13.768;2023-06-19T05:14:39;10.97;;;8.57;;
19739;SDS011;10027;51.066;13.768;2023-06-19T05:17:06;8.80;;;7.90;;
19739;SDS011;10027;51.066;13.768;2023-06-19T05:19:35;12.73;;;8.33;;
19739;SDS011;10027;51.066;13.768;2023-06-19T05:22:03;9.20;;;8.13;;
19739;SDS011;10027;51.066;13.768;2023-06-19T05:24:30;9.73;;;7.60;;
19739;SDS011;10027;51.066;13.768;2023-06-19T05:26:57;10.40;;;8.33;;
19739;SDS011;10027;51.066;13.768;2023-06-19T05:29:25;9.40;;;8.33;;
19739;SDS011;10027;51.066;13.768;2023-06-19T05:31:52;9.83;;;8.00;;
19739;SDS011;10027;51.066;13.768;2023-06-19T05:34:19;9.00;;;8.10;;
19739;SDS011;10027;51.066;13.768;2023-06-19T05:36:46;9.10;;;7.90;;
19739;SDS011;10027;51.066;13.768;2023-06-19T05:39:13;8.60;;;7.70;;
19739;SDS011;10027;51.066;13.768;2023-06-19T05:41:41;10.23;;;8.00;;
19739;SDS011;10027;51.066;13.768;2023-06-19T05:44:12;9.70;;;8.13;;
19739;SDS011;10027;51.066;13.768;2023-06-19T05:46:43;9.37;;;8.10;;
19739;SDS011;10027;51.066;13.768;2023-06-19T05:49:10;9.77;;;7.87;;
19739;SDS011;10027;51.066;13.768;2023-06-19T05:51:37;8.80;;;7.90;;
19739;SDS011;10027;51.066;13.768;2023-06-19T05:54:04;9.83;;;7.83;;
19739;SDS011;10027;51.066;13.768;2023-06-19T05:56:32;8.87;;;7.97;;
19739;SDS011;10027;51.066;13.768;2023-06-19T05:59:00;9.77;;;8.00;;
19739;SDS011;10027;51.066;13.768;2023-06-19T06:01:30;10.33;;;8.30;;
19739;SDS011;10027;51.066;13.768;2023-06-19T06:03:58;10.10;;;8.53;;
19739;SDS011;10027;51.066;13.768;2023-06-19T06:06:27;12.23;;;8.43;;
19739;SDS011;10027;51.066;13.768;2023-06-19T06:08:54;8.87;;;7.93;;
19739;SDS011;10027;51.066;13.768;2023-06-19T06:11:22;9.03;;;7.87;;
19739;SDS011;10027;51.066;13.768;2023-06-19T06:13:49;8.70;;;7.80;;
19739;SDS011;10027;51.066;13.768;2023-06-19T06:16:16;9.13;;;7.47;;
19739;SDS011;10027;51.066;13.768;2023-06-19T06:18:44;9.47;;;7.77;;
19739;SDS011;10027;51.066;13.768;2023-06-19T06:21:11;10.13;;;8.47;;
19739;SDS011;10027;51.066;13.768;2023-06-19T06:23:40;9.17;;;8.23;;
19739;SDS011;10027;51.066;13.768;2023-06-19T06:26:07;8.70;;;7.80;;
19739;SDS011;10027;51.066;13.768;2023-06-19T06:28:35;9.43;;;8.43;;
19739;SDS011;10027;51.066;13.768;2023-06-19T06:31:02;9.00;;;8.10;;
19739;SDS011;10027;51.066;13.768;2023-06-19T06:33:29;10.37;;;8.20;;
19739;SDS011;10027;51.066;13.768;2023-06-19T06:35:57;8.97;;;8.07;;
19739;SDS011;10027;51.066;13.768;2023-06-19T06:38:25;10.07;;;8.30;;
19739;SDS011;10027;51.066;13.768;2023-06-19T06:40:52;8.90;;;8.00;;
19739;SDS011;10027;51.066;13.768;2023-06-19T06:43:19;10.00;;;7.70;;
19739;SDS011;10027;51.066;13.768;2023-06-19T06:45:47;12.00;;;7.83;;
19739;SDS011;10027;51.066;13.768;2023-06-19T06:48:14;9.33;;;7.27;;
19739;SDS011;10027;51.066;13.768;2023-06-19T06:50:42;9.20;;;8.07;;
19739;SDS011;10027;51.066;13.768;2023-06-19T06:53:09;8.10;;;7.20;;
19739;SDS011;10027;51.066;13.768;2023-06-19T06:55:36;9.10;;;7.37;;
19739;SDS011;10027;51.066;13.768;2023-06-19T06:58:03;10.30;;;7.20;;
19739;SDS011;10027;51.066;13.768;2023-06-19T07:00:31;9.83;;;7.73;;
19739;SDS011;10027;51.066;13.768;2023-06-19T07:02:58;7.77;;;6.97;;
19739;SDS011;10027;51.066;13.768;2023-06-19T07:05:25;9.20;;;7.57;;
19739;SDS011;10027;51.066;13.768;2023-06-19T07:07:55;9.90;;;7.13;;
19739;SDS011;10027;51.066;13.768;2023-06-19T07:10:22;8.80;;;7.20;;
19739;SDS011;10027;51.066;13.768;2023-06-19T07:12:50;8.03;;;7.23;;
19739;SDS011;10027;51.066;13.768;2023-06-19T07:15:17;7.40;;;6.70;;
19739;SDS011;10027;51.066;13.768;2023-06-19T07:17:45;9.73;;;7.20;;
19739;SDS011;10027;51.066;13.768;2023-06-19T07:20:13;10.13;;;7.60;;
19739;SDS011;10027;51.066;13.768;2023-06-19T07:22:40;11.43;;;7.10;;
19739;SDS011;10027;51.066;13.768;2023-06-19T07:25:09;8.07;;;6.97;;
19739;SDS011;10027;51.066;13.768;2023-06-19T07:27:37;7.70;;;6.90;;
19739;SDS011;10027;51.066;13.768;2023-06-19T07:30:04;8.13;;;6.83;;
19739;SDS011;10027;51.066;13.768;2023-06-19T07:32:31;8.43;;;6.90;;
19739;SDS011;10027;51.066;13.768;2023-06-19T07:34:59;7.73;;;6.50;;
19739;SDS011;10027;51.066;13.768;2023-06-19T07:37:26;7.13;;;6.40;;
19739;SDS011;10027;51.066;13.768;2023-06-19T07:39:53;7.33;;;6.63;;
19739;SDS011;10027;51.066;13.768;2023-06-19T07:42:20;6.77;;;6.17;;
19739;SDS011;10027;51.066;13.768;2023-06-19T07:44:47;8.90;;;7.07;;
19739;SDS011;10027;51.066;13.768;2023-06-19T07:47:15;7.27;;;6.57;;
19739;SDS011;10027;51.066;13.768;2023-06-19T07:49:44;7.70;;;6.90;;
19739;SDS011;10027;51.066;13.768;2023-06-19T07:52:11;7.47;;;6.47;;
19739;SDS011;10027;51.066;13.768;2023-06-19T07:57:36;7.07;;;6.37;;
19739;SDS011;10027;51.066;13.768;2023-06-19T08:00:03;7.33;;;6.63;;
19739;SDS011;10027;51.066;13.768;2023-06-19T08:02:37;7.20;;;6.50;;
19739;SDS011;10027;51.066;13.768;2023-06-19T08:05:04;7.10;;;6.40;;
19739;SDS011;10027;51.066;13.768;2023-06-19T08:07:32;8.00;;;6.87;;
19739;SDS011;10027;51.066;13.768;2023-06-19T08:09:59;8.73;;;7.03;;
19739;SDS011;10027;51.066;13.768;2023-06-19T08:12:40;8.23;;;6.20;;
19739;SDS011;10027;51.066;13.768;2023-06-19T08:15:08;8.03;;;6.87;;
19739;SDS011;10027;51.066;13.768;2023-06-19T08:17:35;7.83;;;6.70;;
19739;SDS011;10027;51.066;13.768;2023-06-19T08:20:03;7.43;;;6.73;;
19739;SDS011;10027;51.066;13.768;2023-06-19T08:22:31;7.00;;;6.30;;
19739;SDS011;10027;51.066;13.768;2023-06-19T08:24:58;9.33;;;6.93;;
19739;SDS011;10027;51.066;13.768;2023-06-19T08:27:25;6.97;;;6.27;;
19739;SDS011;10027;51.066;13.768;2023-06-19T08:29:53;7.37;;;6.67;;
19739;SDS011;10027;51.066;13.768;2023-06-19T08:32:20;7.07;;;6.37;;
19739;SDS011;10027;51.066;13.768;2023-06-19T08:34:47;7.93;;;7.13;;
19739;SDS011;10027;51.066;13.768;2023-06-19T08:37:14;7.47;;;6.77;;
19739;SDS011;10027;51.066;13.768;2023-06-19T08:39:41;7.00;;;6.30;;
19739;SDS011;10027;51.066;13.768;2023-06-19T08:42:10;8.07;;;6.83;;
19739;SDS011;10027;51.066;13.768;2023-06-19T08:44:37;7.73;;;6.80;;
19739;SDS011;10027;51.066;13.768;2023-06-19T08:47:05;7.80;;;7.00;;
19739;SDS011;10027;51.066;13.768;2023-06-19T08:49:33;10.97;;;6.77;;
19739;SDS011;10027;51.066;13.768;2023-06-19T08:52:03;8.13;;;6.80;;
19739;SDS011;10027;51.066;13.768;2023-06-19T08:54:31;7.17;;;6.47;;
19739;SDS011;10027;51.066;13.768;2023-06-19T08:57:02;6.93;;;6.33;;
19739;SDS011;10027;51.066;13.768;2023-06-19T08:59:29;9.03;;;6.87;;
19739;SDS011;10027;51.066;13.768;2023-06-19T09:01:58;7.60;;;6.70;;
19739;SDS011;10027;51.066;13.768;2023-06-19T09:04:26;8.83;;;7.23;;
19739;SDS011;10027;51.066;13.768;2023-06-19T09:07:00;9.23;;;7.20;;
19739;SDS011;10027;51.066;13.768;2023-06-19T09:09:29;7.87;;;7.00;;
19739;SDS011;10027;51.066;13.768;2023-06-19T09:14:40;7.97;;;7.17;;
19739;SDS011;10027;51.066;13.768;2023-06-19T09:17:09;7.23;;;6.53;;
19739;SDS011;10027;51.066;13.768;2023-06-19T09:19:37;7.97;;;7.17;;
19739;SDS011;10027;51.066;13.768;2023-06-19T09:22:07;7.77;;;6.97;;
19739;SDS011;10027;51.066;13.768;2023-06-19T09:24:35;7.63;;;6.83;;
19739;SDS011;10027;51.066;13.768;2023-06-19T09:27:09;8.07;;;6.90;;
19739;SDS011;10027;51.066;13.768;2023-06-19T09:29:41;7.63;;;6.83;;
19739;SDS011;10027;51.066;13.768;2023-06-19T09:34:44;7.67;;;6.87;;
19739;SDS011;10027;51.066;13.768;2023-06-19T09:37:12;8.67;;;7.20;;
19739;SDS011;10027;51.066;13.768;2023-06-19T09:39:41;7.87;;;6.83;;
19739;SDS011;10027;51.066;13.768;2023-06-19T09:42:09;7.23;;;6.53;;
19739;SDS011;10027;51.066;13.768;2023-06-19T09:44:39;9.40;;;7.50;;
19739;SDS011;10027;51.066;13.768;2023-06-19T09:47:16;8.17;;;7.37;;
19739;SDS011;10027;51.066;13.768;2023-06-19T09:49:54;9.27;;;6.97;;
19739;SDS011;10027;51.066;13.768;2023-06-19T09:52:21;8.03;;;7.03;;
19739;SDS011;10027;51.066;13.768;2023-06-19T09:54:50;8.00;;;7.17;;
19739;SDS011;10027;51.066;13.768;2023-06-19T09:57:17;8.00;;;7.20;;
19739;SDS011;10027;51.066;13.768;2023-06-19T09:59:48;9.43;;;7.50;;
19739;SDS011;10027;51.066;13.768;2023-06-19T10:02:17;8.13;;;7.33;;
19739;SDS011;10027;51.066;13.768;2023-06-19T10:04:49;7.87;;;7.07;;
19739;SDS011;10027;51.066;13.768;2023-06-19T10:07:18;8.20;;;7.40;;
19739;SDS011;10027;51.066;13.768;2023-06-19T10:12:45;8.17;;;7.20;;
19739;SDS011;10027;51.066;13.768;2023-06-19T10:15:15;7.60;;;6.90;;
19739;SDS011;10027;51.066;13.768;2023-06-19T10:17:44;9.53;;;7.40;;
19739;SDS011;10027;51.066;13.768;2023-06-19T10:20:21;7.93;;;7.10;;
19739;SDS011;10027;51.066;13.768;2023-06-19T10:22:50;8.90;;;6.97;;
19739;SDS011;10027;51.066;13.768;2023-06-19T10:25:24;9.00;;;6.97;;
19739;SDS011;10027;51.066;13.768;2023-06-19T10:27:51;7.87;;;7.07;;
19739;SDS011;10027;51.066;13.768;2023-06-19T10:30:19;8.43;;;7.47;;
19739;SDS011;10027;51.066;13.768;2023-06-19T10:32:47;7.87;;;7.07;;
19739;SDS011;10027;51.066;13.768;2023-06-19T10:35:15;9.00;;;7.57;;
19739;SDS011;10027;51.066;13.768;2023-06-19T10:37:43;8.23;;;7.03;;
19739;SDS011;10027;51.066;13.768;2023-06-19T10:40:11;8.60;;;7.80;;
19739;SDS011;10027;51.066;13.768;2023-06-19T10:42:39;8.77;;;7.13;;
19739;SDS011;10027;51.066;13.768;2023-06-19T10:45:08;8.30;;;7.33;;
19739;SDS011;10027;51.066;13.768;2023-06-19T10:47:37;8.17;;;6.97;;
19739;SDS011;10027;51.066;13.768;2023-06-19T10:50:14;10.00;;;7.40;;
19739;SDS011;10027;51.066;13.768;2023-06-19T10:52:42;8.90;;;7.47;;
19739;SDS011;10027;51.066;13.768;2023-06-19T10:55:10;8.10;;;7.27;;
19739;SDS011;10027;51.066;13.768;2023-06-19T10:57:38;7.97;;;7.13;;
19739;SDS011;10027;51.066;13.768;2023-06-19T11:00:06;8.27;;;7.47;;
19739;SDS011;10027;51.066;13.768;2023-06-19T11:02:42;8.50;;;7.57;;
19739;SDS011;10027;51.066;13.768;2023-06-19T11:05:10;9.40;;;7.40;;
19739;SDS011;10027;51.066;13.768;2023-06-19T11:07:38;8.30;;;7.47;;
19739;SDS011;10027;51.066;13.768;2023-06-19T11:10:06;7.80;;;6.97;;
19739;SDS011;10027;51.066;13.768;2023-06-19T11:12:33;8.60;;;7.53;;
19739;SDS011;10027;51.066;13.768;2023-06-19T11:15:04;8.47;;;7.57;;
19739;SDS011;10027;51.066;13.768;2023-06-19T11:17:32;8.20;;;7.40;;
19739;SDS011;10027;51.066;13.768;2023-06-19T11:19:59;8.23;;;7.33;;
19739;SDS011;10027;51.066;13.768;2023-06-19T11:22:36;7.90;;;7.10;;
19739;SDS011;10027;51.066;13.768;2023-06-19T11:25:04;7.77;;;7.07;;
19739;SDS011;10027;51.066;13.768;2023-06-19T11:27:32;8.50;;;7.60;;
19739;SDS011;10027;51.066;13.768;2023-06-19T11:29:59;8.97;;;7.63;;
19739;SDS011;10027;51.066;13.768;2023-06-19T11:32:30;7.97;;;7.03;;
19739;SDS011;10027;51.066;13.768;2023-06-19T11:34:57;7.53;;;6.80;;
19739;SDS011;10027;51.066;13.768;2023-06-19T11:37:33;8.00;;;7.20;;
19739;SDS011;10027;51.066;13.768;2023-06-19T11:40:01;10.43;;;7.63;;
19739;SDS011;10027;51.066;13.768;2023-06-19T11:42:44;8.00;;;7.20;;
19739;SDS011;10027;51.066;13.768;2023-06-19T11:45:11;8.27;;;6.97;;
19739;SDS011;10027;51.066;13.768;2023-06-19T11:47:38;8.00;;;7.20;;
19739;SDS011;10027;51.066;13.768;2023-06-19T11:50:06;7.57;;;6.87;;
19739;SDS011;10027;51.066;13.768;2023-06-19T11:52:33;7.83;;;7.13;;
19739;SDS011;10027;51.066;13.768;2023-06-19T11:55:01;8.03;;;7.23;;
19739;SDS011;10027;51.066;13.768;2023-06-19T11:57:31;8.07;;;7.27;;
19739;SDS011;10027;51.066;13.768;2023-06-19T12:00:02;7.63;;;6.90;;
19739;SDS011;10027;51.066;13.768;2023-06-19T12:02:36;7.70;;;7.00;;
19739;SDS011;10027;51.066;13.768;2023-06-19T12:05:03;7.33;;;6.63;;
19739;SDS011;10027;51.066;13.768;2023-06-19T12:07:30;7.07;;;6.40;;
19739;SDS011;10027;51.066;13.768;2023-06-19T12:09:58;7.60;;;6.90;;
19739;SDS011;10027;51.066;13.768;2023-06-19T12:12:28;7.03;;;6.43;;
19739;SDS011;10027;51.066;13.768;2023-06-19T12:14:57;7.27;;;6.57;;
19739;SDS011;10027;51.066;13.768;2023-06-19T12:17:24;7.23;;;6.53;;
19739;SDS011;10027;51.066;13.768;2023-06-19T12:19:52;6.93;;;6.33;;
19739;SDS011;10027;51.066;13.768;2023-06-19T12:22:20;7.43;;;6.40;;
19739;SDS011;10027;51.066;13.768;2023-06-19T12:24:47;7.17;;;6.57;;
19739;SDS011;10027;51.066;13.768;2023-06-19T12:27:15;7.80;;;7.10;;
19739;SDS011;10027;51.066;13.768;2023-06-19T12:29:42;7.37;;;6.67;;
19739;SDS011;10027;51.066;13.768;2023-06-19T12:32:09;7.00;;;6.30;;
19739;SDS011;10027;51.066;13.768;2023-06-19T12:34:36;7.60;;;6.60;;
19739;SDS011;10027;51.066;13.768;2023-06-19T12:37:03;7.33;;;6.63;;
19739;SDS011;10027;51.066;13.768;2023-06-19T12:39:31;7.37;;;6.43;;
19739;SDS011;10027;51.066;13.768;2023-06-19T12:41:59;7.47;;;6.77;;
19739;SDS011;10027;51.066;13.768;2023-06-19T12:44:26;7.17;;;6.43;;
19739;SDS011;10027;51.066;13.768;2023-06-19T12:46:53;7.20;;;6.50;;
19739;SDS011;10027;51.066;13.768;2023-06-19T12:49:21;8.50;;;6.40;;
19739;SDS011;10027;51.066;13.768;2023-06-19T12:51:48;6.77;;;6.10;;
19739;SDS011;10027;51.066;13.768;2023-06-19T12:54:18;6.97;;;6.27;;
19739;SDS011;10027;51.066;13.768;2023-06-19T12:56:45;6.67;;;6.07;;
19739;SDS011;10027;51.066;13.768;2023-06-19T12:59:12;6.47;;;5.90;;
19739;SDS011;10027;51.066;13.768;2023-06-19T13:01:40;6.93;;;6.20;;
19739;SDS011;10027;51.066;13.768;2023-06-19T13:04:07;6.60;;;6.00;;
19739;SDS011;10027;51.066;13.768;2023-06-19T13:06:35;6.63;;;6.03;;
19739;SDS011;10027;51.066;13.768;2023-06-19T13:09:03;6.80;;;6.07;;
19739;SDS011;10027;51.066;13.768;2023-06-19T13:11:32;7.10;;;6.40;;
19739;SDS011;10027;51.066;13.768;2023-06-19T13:14:02;6.77;;;6.17;;
19739;SDS011;10027;51.066;13.768;2023-06-19T13:16:30;7.30;;;6.63;;
19739;SDS011;10027;51.066;13.768;2023-06-19T13:19:12;7.77;;;6.87;;
19739;SDS011;10027;51.066;13.768;2023-06-19T13:21:40;7.13;;;6.53;;
19739;SDS011;10027;51.066;13.768;2023-06-19T13:24:07;7.13;;;6.40;;
19739;SDS011;10027;51.066;13.768;2023-06-19T13:26:34;7.60;;;6.83;;
19739;SDS011;10027;51.066;13.768;2023-06-19T13:29:02;7.93;;;7.13;;
19739;SDS011;10027;51.066;13.768;2023-06-19T13:31:29;8.27;;;7.47;;
19739;SDS011;10027;51.066;13.768;2023-06-19T13:33:56;7.80;;;7.00;;
19739;SDS011;10027;51.066;13.768;2023-06-19T13:36:24;8.40;;;7.50;;
19739;SDS011;10027;51.066;13.768;2023-06-19T13:38:53;7.90;;;7.10;;
19739;SDS011;10027;51.066;13.768;2023-06-19T13:41:20;9.07;;;7.27;;
19739;SDS011;10027;51.066;13.768;2023-06-19T13:43:50;8.00;;;7.20;;
19739;SDS011;10027;51.066;13.768;2023-06-19T13:46:17;8.43;;;7.63;;
19739;SDS011;10027;51.066;13.768;2023-06-19T13:48:44;9.57;;;7.70;;
19739;SDS011;10027;51.066;13.768;2023-06-19T13:51:25;9.50;;;7.87;;
19739;SDS011;10027;51.066;13.768;2023-06-19T13:53:52;9.13;;;8.23;;
19739;SDS011;10027;51.066;13.768;2023-06-19T13:56:20;9.47;;;8.23;;
19739;SDS011;10027;51.066;13.768;2023-06-19T13:58:49;8.83;;;7.73;;
19739;SDS011;10027;51.066;13.768;2023-06-19T14:01:17;9.13;;;8.23;;
19739;SDS011;10027;51.066;13.768;2023-06-19T14:03:44;9.10;;;8.20;;
19739;SDS011;10027;51.066;13.768;2023-06-19T14:06:11;9.80;;;8.90;;
19739;SDS011;10027;51.066;13.768;2023-06-19T14:08:39;9.07;;;8.17;;
19739;SDS011;10027;51.066;13.768;2023-06-19T14:11:06;9.87;;;8.87;;
19739;SDS011;10027;51.066;13.768;2023-06-19T14:13:33;11.87;;;8.60;;
19739;SDS011;10027;51.066;13.768;2023-06-19T14:16:01;9.70;;;8.80;;
19739;SDS011;10027;51.066;13.768;2023-06-19T14:18:28;9.67;;;8.70;;
19739;SDS011;10027;51.066;13.768;2023-06-19T14:20:55;9.67;;;8.77;;
19739;SDS011;10027;51.066;13.768;2023-06-19T14:23:22;9.17;;;8.20;;
19739;SDS011;10027;51.066;13.768;2023-06-19T14:25:50;11.67;;;8.73;;
19739;SDS011;10027;51.066;13.768;2023-06-19T14:28:17;9.77;;;8.80;;
19739;SDS011;10027;51.066;13.768;2023-06-19T14:30:44;10.17;;;8.97;;
19739;SDS011;10027;51.066;13.768;2023-06-19T14:33:11;10.20;;;9.10;;
19739;SDS011;10027;51.066;13.768;2023-06-19T14:35:42;10.63;;;8.90;;
19739;SDS011;10027;51.066;13.768;2023-06-19T14:38:12;9.70;;;8.70;;
19739;SDS011;10027;51.066;13.768;2023-06-19T14:40:43;9.37;;;8.47;;
19739;SDS011;10027;51.066;13.768;2023-06-19T14:43:10;11.17;;;9.17;;
19739;SDS011;10027;51.066;13.768;2023-06-19T14:45:37;11.83;;;8.97;;
19739;SDS011;10027;51.066;13.768;2023-06-19T14:48:06;10.50;;;9.37;;
19739;SDS011;10027;51.066;13.768;2023-06-19T14:50:34;11.63;;;9.07;;